sensor_id;sensor_type;location;lat;lon;timestamp;P1;durP1;ratioP1;P2;durP2;ratioP2
74510;SDS011;62991;50.040;18.400;2022-10-16T00:00:29;14.88;;;6.80;;
74510;SDS011;62991;50.040;18.400;2022-10-16T00:03:31;17.17;;;7.07;;
74510;SDS011;62991;50.040;18.400;2022-10-16T00:06:31;14.55;;;6.88;;
74510;SDS011;62991;50.040;18.400;2022-10-16T00:09:32;17.35;;;8.15;;
74510;SDS011;62991;50.040;18.400;2022-10-16T00:12:33;18.85;;;8.07;;
74510;SDS011;62991;50.040;18.400;2022-10-16T00:15:35;16.30;;;6.95;;
74510;SDS011;62991;50.040;18.400;2022-10-16T00:18:36;14.23;;;6.30;;
74510;SDS011;62991;50.040;18.400;2022-10-16T00:21:37;14.50;;;6.53;;
74510;SDS011;62991;50.040;18.400;2022-10-16T00:24:38;17.60;;;6.28;;
74510;SDS011;62991;50.040;18.400;2022-10-16T00:27:39;15.45;;;6.65;;
74510;SDS011;62991;50.040;18.400;2022-10-16T00:30:40;22.38;;;8.10;;
74510;SDS011;62991;50.040;18.400;2022-10-16T00:33:41;25.52;;;9.25;;
74510;SDS011;62991;50.040;18.400;2022-10-16T00:36:42;18.88;;;8.52;;
74510;SDS011;62991;50.040;18.400;2022-10-16T00:39:42;17.65;;;6.72;;
74510;SDS011;62991;50.040;18.400;2022-10-16T00:42:43;16.65;;;7.28;;
74510;SDS011;62991;50.040;18.400;2022-10-16T00:45:44;15.32;;;6.07;;
74510;SDS011;62991;50.040;18.400;2022-10-16T00:49:30;15.32;;;5.70;;
74510;SDS011;62991;50.040;18.400;2022-10-16T00:52:13;9.57;;;5.25;;
74510;SDS011;62991;50.040;18.400;2022-10-16T00:55:14;11.68;;;5.90;;
74510;SDS011;62991;50.040;18.400;2022-10-16T00:58:15;8.23;;;4.38;;
74510;SDS011;62991;50.040;18.400;2022-10-16T01:01:16;13.43;;;6.25;;
74510;SDS011;62991;50.040;18.400;2022-10-16T01:04:17;14.48;;;6.60;;
74510;SDS011;62991;50.040;18.400;2022-10-16T01:11:11;14.35;;;6.45;;
74510;SDS011;62991;50.040;18.400;2022-10-16T01:14:46;12.88;;;6.75;;
74510;SDS011;62991;50.040;18.400;2022-10-16T01:20:48;18.60;;;7.68;;
74510;SDS011;62991;50.040;18.400;2022-10-16T01:27:14;14.65;;;6.55;;
74510;SDS011;62991;50.040;18.400;2022-10-16T01:30:27;12.90;;;6.45;;
74510;SDS011;62991;50.040;18.400;2022-10-16T01:33:35;15.07;;;6.75;;
74510;SDS011;62991;50.040;18.400;2022-10-16T01:36:45;14.38;;;7.18;;
74510;SDS011;62991;50.040;18.400;2022-10-16T01:40:09;14.48;;;7.00;;
74510;SDS011;62991;50.040;18.400;2022-10-16T01:43:14;19.83;;;6.93;;
74510;SDS011;62991;50.040;18.400;2022-10-16T01:46:19;17.13;;;7.03;;
74510;SDS011;62991;50.040;18.400;2022-10-16T01:49:23;12.30;;;6.03;;
74510;SDS011;62991;50.040;18.400;2022-10-16T01:52:26;15.35;;;7.07;;
74510;SDS011;62991;50.040;18.400;2022-10-16T01:55:29;17.63;;;8.02;;
74510;SDS011;62991;50.040;18.400;2022-10-16T01:58:34;21.50;;;7.60;;
74510;SDS011;62991;50.040;18.400;2022-10-16T02:01:40;20.45;;;7.10;;
74510;SDS011;62991;50.040;18.400;2022-10-16T02:04:47;14.50;;;7.10;;
74510;SDS011;62991;50.040;18.400;2022-10-16T02:07:51;11.02;;;6.05;;
74510;SDS011;62991;50.040;18.400;2022-10-16T02:10:52;12.93;;;5.88;;
74510;SDS011;62991;50.040;18.400;2022-10-16T02:13:58;15.00;;;6.07;;
74510;SDS011;62991;50.040;18.400;2022-10-16T02:17:10;15.82;;;6.22;;
74510;SDS011;62991;50.040;18.400;2022-10-16T02:20:12;12.40;;;6.45;;
74510;SDS011;62991;50.040;18.400;2022-10-16T02:23:14;14.45;;;6.38;;
74510;SDS011;62991;50.040;18.400;2022-10-16T02:26:25;13.98;;;6.20;;
74510;SDS011;62991;50.040;18.400;2022-10-16T02:29:38;12.70;;;5.88;;
74510;SDS011;62991;50.040;18.400;2022-10-16T02:32:44;10.52;;;5.65;;
74510;SDS011;62991;50.040;18.400;2022-10-16T02:35:47;15.07;;;6.45;;
74510;SDS011;62991;50.040;18.400;2022-10-16T02:38:50;13.20;;;6.18;;
74510;SDS011;62991;50.040;18.400;2022-10-16T02:41:52;13.85;;;6.28;;
74510;SDS011;62991;50.040;18.400;2022-10-16T02:44:53;15.57;;;6.40;;
74510;SDS011;62991;50.040;18.400;2022-10-16T02:47:53;13.05;;;6.35;;
74510;SDS011;62991;50.040;18.400;2022-10-16T02:50:54;12.02;;;6.03;;
74510;SDS011;62991;50.040;18.400;2022-10-16T02:53:55;13.40;;;6.82;;
74510;SDS011;62991;50.040;18.400;2022-10-16T02:56:56;15.30;;;6.90;;
74510;SDS011;62991;50.040;18.400;2022-10-16T02:59:56;21.02;;;8.32;;
74510;SDS011;62991;50.040;18.400;2022-10-16T03:02:57;23.10;;;8.55;;
74510;SDS011;62991;50.040;18.400;2022-10-16T03:05:58;18.42;;;7.90;;
74510;SDS011;62991;50.040;18.400;2022-10-16T03:08:59;17.23;;;7.32;;
74510;SDS011;62991;50.040;18.400;2022-10-16T03:11:59;17.88;;;7.80;;
74510;SDS011;62991;50.040;18.400;2022-10-16T03:15:00;14.88;;;7.78;;
74510;SDS011;62991;50.040;18.400;2022-10-16T03:18:01;14.77;;;6.57;;
74510;SDS011;62991;50.040;18.400;2022-10-16T03:21:01;14.70;;;5.88;;
74510;SDS011;62991;50.040;18.400;2022-10-16T03:24:02;15.48;;;6.45;;
74510;SDS011;62991;50.040;18.400;2022-10-16T03:27:03;13.40;;;5.10;;
74510;SDS011;62991;50.040;18.400;2022-10-16T03:30:04;15.75;;;6.35;;
74510;SDS011;62991;50.040;18.400;2022-10-16T03:33:05;13.88;;;6.15;;
74510;SDS011;62991;50.040;18.400;2022-10-16T03:36:06;15.25;;;6.35;;
74510;SDS011;62991;50.040;18.400;2022-10-16T03:39:07;12.38;;;6.30;;
74510;SDS011;62991;50.040;18.400;2022-10-16T03:42:07;17.67;;;6.47;;
74510;SDS011;62991;50.040;18.400;2022-10-16T03:45:08;13.55;;;5.97;;
74510;SDS011;62991;50.040;18.400;2022-10-16T03:48:09;10.90;;;5.90;;
74510;SDS011;62991;50.040;18.400;2022-10-16T03:51:10;16.85;;;6.45;;
74510;SDS011;62991;50.040;18.400;2022-10-16T03:54:11;16.02;;;7.03;;
74510;SDS011;62991;50.040;18.400;2022-10-16T03:57:12;13.82;;;6.60;;
74510;SDS011;62991;50.040;18.400;2022-10-16T04:00:13;13.23;;;6.03;;
74510;SDS011;62991;50.040;18.400;2022-10-16T04:03:13;13.10;;;5.50;;
74510;SDS011;62991;50.040;18.400;2022-10-16T04:06:14;14.52;;;5.97;;
74510;SDS011;62991;50.040;18.400;2022-10-16T04:09:15;15.85;;;6.97;;
74510;SDS011;62991;50.040;18.400;2022-10-16T04:12:15;14.23;;;6.68;;
74510;SDS011;62991;50.040;18.400;2022-10-16T04:15:16;16.35;;;6.90;;
74510;SDS011;62991;50.040;18.400;2022-10-16T04:18:17;15.70;;;6.45;;
74510;SDS011;62991;50.040;18.400;2022-10-16T04:21:18;12.65;;;5.40;;
74510;SDS011;62991;50.040;18.400;2022-10-16T04:24:18;14.77;;;6.10;;
74510;SDS011;62991;50.040;18.400;2022-10-16T04:27:19;16.63;;;5.57;;
74510;SDS011;62991;50.040;18.400;2022-10-16T04:30:20;12.15;;;5.78;;
74510;SDS011;62991;50.040;18.400;2022-10-16T04:33:21;11.65;;;5.85;;
74510;SDS011;62991;50.040;18.400;2022-10-16T04:36:22;16.88;;;6.90;;
74510;SDS011;62991;50.040;18.400;2022-10-16T04:39:23;14.68;;;6.78;;
74510;SDS011;62991;50.040;18.400;2022-10-16T04:42:24;14.25;;;6.95;;
74510;SDS011;62991;50.040;18.400;2022-10-16T04:45:24;15.57;;;5.70;;
74510;SDS011;62991;50.040;18.400;2022-10-16T04:48:25;13.65;;;6.40;;
74510;SDS011;62991;50.040;18.400;2022-10-16T04:51:26;15.07;;;6.55;;
74510;SDS011;62991;50.040;18.400;2022-10-16T04:54:27;12.98;;;6.35;;
74510;SDS011;62991;50.040;18.400;2022-10-16T04:57:28;15.02;;;6.68;;
74510;SDS011;62991;50.040;18.400;2022-10-16T05:00:29;17.80;;;8.60;;
74510;SDS011;62991;50.040;18.400;2022-10-16T05:03:30;19.02;;;6.90;;
74510;SDS011;62991;50.040;18.400;2022-10-16T05:06:31;18.67;;;6.82;;
74510;SDS011;62991;50.040;18.400;2022-10-16T05:09:32;14.77;;;6.93;;
74510;SDS011;62991;50.040;18.400;2022-10-16T05:12:32;23.80;;;8.18;;
74510;SDS011;62991;50.040;18.400;2022-10-16T05:15:33;20.08;;;7.28;;
74510;SDS011;62991;50.040;18.400;2022-10-16T05:18:34;17.95;;;8.00;;
74510;SDS011;62991;50.040;18.400;2022-10-16T05:21:34;17.23;;;7.32;;
74510;SDS011;62991;50.040;18.400;2022-10-16T05:24:35;17.48;;;7.13;;
74510;SDS011;62991;50.040;18.400;2022-10-16T05:27:36;13.55;;;6.35;;
74510;SDS011;62991;50.040;18.400;2022-10-16T05:30:37;14.25;;;6.38;;
74510;SDS011;62991;50.040;18.400;2022-10-16T05:33:38;14.43;;;7.40;;
74510;SDS011;62991;50.040;18.400;2022-10-16T05:36:39;18.70;;;8.82;;
74510;SDS011;62991;50.040;18.400;2022-10-16T05:39:39;19.65;;;8.55;;
74510;SDS011;62991;50.040;18.400;2022-10-16T05:42:40;24.38;;;10.57;;
74510;SDS011;62991;50.040;18.400;2022-10-16T05:45:41;22.45;;;11.35;;
74510;SDS011;62991;50.040;18.400;2022-10-16T05:48:42;23.92;;;10.52;;
74510;SDS011;62991;50.040;18.400;2022-10-16T05:51:43;26.00;;;11.60;;
74510;SDS011;62991;50.040;18.400;2022-10-16T05:54:44;20.35;;;8.65;;
74510;SDS011;62991;50.040;18.400;2022-10-16T05:57:44;14.63;;;7.30;;
74510;SDS011;62991;50.040;18.400;2022-10-16T06:00:52;14.95;;;6.05;;
74510;SDS011;62991;50.040;18.400;2022-10-16T06:03:54;20.88;;;6.22;;
74510;SDS011;62991;50.040;18.400;2022-10-16T06:06:57;14.52;;;6.43;;
74510;SDS011;62991;50.040;18.400;2022-10-16T06:10:00;9.90;;;5.43;;
74510;SDS011;62991;50.040;18.400;2022-10-16T06:13:01;16.63;;;6.97;;
74510;SDS011;62991;50.040;18.400;2022-10-16T06:16:02;14.70;;;6.82;;
74510;SDS011;62991;50.040;18.400;2022-10-16T06:19:04;14.13;;;6.55;;
74510;SDS011;62991;50.040;18.400;2022-10-16T06:22:08;18.42;;;6.70;;
74510;SDS011;62991;50.040;18.400;2022-10-16T06:25:08;15.40;;;7.43;;
74510;SDS011;62991;50.040;18.400;2022-10-16T06:28:09;12.45;;;6.22;;
74510;SDS011;62991;50.040;18.400;2022-10-16T06:31:11;15.90;;;6.75;;
74510;SDS011;62991;50.040;18.400;2022-10-16T06:34:12;18.27;;;7.38;;
74510;SDS011;62991;50.040;18.400;2022-10-16T06:37:13;17.02;;;7.05;;
74510;SDS011;62991;50.040;18.400;2022-10-16T06:40:14;14.07;;;6.18;;
74510;SDS011;62991;50.040;18.400;2022-10-16T06:43:14;18.15;;;6.50;;
74510;SDS011;62991;50.040;18.400;2022-10-16T06:46:16;20.20;;;7.97;;
74510;SDS011;62991;50.040;18.400;2022-10-16T06:49:19;14.70;;;6.22;;
74510;SDS011;62991;50.040;18.400;2022-10-16T06:52:22;13.00;;;6.57;;
74510;SDS011;62991;50.040;18.400;2022-10-16T06:55:23;11.40;;;5.30;;
74510;SDS011;62991;50.040;18.400;2022-10-16T06:58:24;14.90;;;5.05;;
74510;SDS011;62991;50.040;18.400;2022-10-16T07:01:25;13.75;;;4.75;;
74510;SDS011;62991;50.040;18.400;2022-10-16T07:04:26;9.82;;;5.20;;
74510;SDS011;62991;50.040;18.400;2022-10-16T07:07:27;13.23;;;5.32;;
74510;SDS011;62991;50.040;18.400;2022-10-16T07:10:28;11.57;;;4.88;;
74510;SDS011;62991;50.040;18.400;2022-10-16T07:13:28;10.05;;;5.30;;
74510;SDS011;62991;50.040;18.400;2022-10-16T07:16:30;11.25;;;5.55;;
74510;SDS011;62991;50.040;18.400;2022-10-16T07:19:32;12.07;;;5.20;;
74510;SDS011;62991;50.040;18.400;2022-10-16T07:22:32;15.57;;;6.75;;
74510;SDS011;62991;50.040;18.400;2022-10-16T07:25:33;12.88;;;6.03;;
74510;SDS011;62991;50.040;18.400;2022-10-16T07:28:34;13.18;;;5.90;;
74510;SDS011;62991;50.040;18.400;2022-10-16T07:31:35;13.52;;;6.28;;
74510;SDS011;62991;50.040;18.400;2022-10-16T07:34:36;23.63;;;10.10;;
74510;SDS011;62991;50.040;18.400;2022-10-16T07:37:36;15.95;;;6.90;;
74510;SDS011;62991;50.040;18.400;2022-10-16T07:40:37;12.65;;;6.10;;
74510;SDS011;62991;50.040;18.400;2022-10-16T07:43:38;13.23;;;5.65;;
74510;SDS011;62991;50.040;18.400;2022-10-16T07:46:39;10.73;;;5.03;;
74510;SDS011;62991;50.040;18.400;2022-10-16T07:49:39;9.98;;;4.50;;
74510;SDS011;62991;50.040;18.400;2022-10-16T07:52:40;14.93;;;5.78;;
74510;SDS011;62991;50.040;18.400;2022-10-16T07:55:41;15.63;;;6.07;;
74510;SDS011;62991;50.040;18.400;2022-10-16T07:58:43;15.05;;;6.55;;
74510;SDS011;62991;50.040;18.400;2022-10-16T08:01:44;13.70;;;7.35;;
74510;SDS011;62991;50.040;18.400;2022-10-16T08:04:46;16.00;;;5.47;;
74510;SDS011;62991;50.040;18.400;2022-10-16T08:07:50;14.02;;;7.10;;
74510;SDS011;62991;50.040;18.400;2022-10-16T08:10:51;18.27;;;8.40;;
74510;SDS011;62991;50.040;18.400;2022-10-16T08:13:51;16.85;;;7.03;;
74510;SDS011;62991;50.040;18.400;2022-10-16T08:16:52;13.10;;;7.15;;
74510;SDS011;62991;50.040;18.400;2022-10-16T08:19:53;19.92;;;9.18;;
74510;SDS011;62991;50.040;18.400;2022-10-16T08:22:54;22.52;;;9.43;;
74510;SDS011;62991;50.040;18.400;2022-10-16T08:25:56;24.70;;;9.75;;
74510;SDS011;62991;50.040;18.400;2022-10-16T08:29:01;20.63;;;9.38;;
74510;SDS011;62991;50.040;18.400;2022-10-16T08:32:03;19.13;;;7.57;;
74510;SDS011;62991;50.040;18.400;2022-10-16T08:35:04;15.35;;;7.68;;
74510;SDS011;62991;50.040;18.400;2022-10-16T08:38:05;23.90;;;10.82;;
74510;SDS011;62991;50.040;18.400;2022-10-16T08:54:12;15.80;;;6.97;;
74510;SDS011;62991;50.040;18.400;2022-10-16T08:57:19;15.23;;;6.95;;
74510;SDS011;62991;50.040;18.400;2022-10-16T09:00:21;14.73;;;6.53;;
74510;SDS011;62991;50.040;18.400;2022-10-16T09:03:33;22.70;;;7.40;;
74510;SDS011;62991;50.040;18.400;2022-10-16T09:16:48;16.40;;;7.93;;
74510;SDS011;62991;50.040;18.400;2022-10-16T09:23:25;21.35;;;8.65;;
74510;SDS011;62991;50.040;18.400;2022-10-16T09:26:27;21.92;;;8.57;;
74510;SDS011;62991;50.040;18.400;2022-10-16T09:29:28;13.82;;;6.82;;
74510;SDS011;62991;50.040;18.400;2022-10-16T09:32:28;17.65;;;8.40;;
74510;SDS011;62991;50.040;18.400;2022-10-16T09:38:40;12.50;;;5.15;;
74510;SDS011;62991;50.040;18.400;2022-10-16T09:41:41;15.13;;;6.65;;
74510;SDS011;62991;50.040;18.400;2022-10-16T09:44:47;14.57;;;6.53;;
74510;SDS011;62991;50.040;18.400;2022-10-16T09:47:49;8.82;;;4.25;;
74510;SDS011;62991;50.040;18.400;2022-10-16T09:50:58;14.52;;;5.78;;
74510;SDS011;62991;50.040;18.400;2022-10-16T09:54:01;12.38;;;5.38;;
74510;SDS011;62991;50.040;18.400;2022-10-16T09:57:13;11.57;;;5.47;;
74510;SDS011;62991;50.040;18.400;2022-10-16T10:00:15;11.18;;;5.57;;
74510;SDS011;62991;50.040;18.400;2022-10-16T10:03:31;15.55;;;6.78;;
74510;SDS011;62991;50.040;18.400;2022-10-16T10:06:36;12.15;;;5.68;;
74510;SDS011;62991;50.040;18.400;2022-10-16T10:09:43;11.63;;;5.30;;
74510;SDS011;62991;50.040;18.400;2022-10-16T10:12:45;9.80;;;4.93;;
74510;SDS011;62991;50.040;18.400;2022-10-16T10:15:46;13.48;;;6.95;;
74510;SDS011;62991;50.040;18.400;2022-10-16T10:18:57;13.35;;;6.13;;
74510;SDS011;62991;50.040;18.400;2022-10-16T10:21:58;14.32;;;5.78;;
74510;SDS011;62991;50.040;18.400;2022-10-16T10:25:00;9.55;;;3.95;;
74510;SDS011;62991;50.040;18.400;2022-10-16T10:31:51;13.88;;;5.70;;
74510;SDS011;62991;50.040;18.400;2022-10-16T10:38:30;10.73;;;5.50;;
74510;SDS011;62991;50.040;18.400;2022-10-16T10:48:32;16.70;;;5.93;;
74510;SDS011;62991;50.040;18.400;2022-10-16T10:58:16;13.50;;;5.25;;
74510;SDS011;62991;50.040;18.400;2022-10-16T11:01:40;13.55;;;6.30;;
74510;SDS011;62991;50.040;18.400;2022-10-16T11:08:47;16.73;;;6.13;;
74510;SDS011;62991;50.040;18.400;2022-10-16T11:15:04;14.00;;;5.20;;
74510;SDS011;62991;50.040;18.400;2022-10-16T11:21:47;7.55;;;4.45;;
74510;SDS011;62991;50.040;18.400;2022-10-16T11:28:27;10.18;;;4.57;;
74510;SDS011;62991;50.040;18.400;2022-10-16T11:31:36;9.02;;;4.10;;
74510;SDS011;62991;50.040;18.400;2022-10-16T11:34:38;9.50;;;3.88;;
74510;SDS011;62991;50.040;18.400;2022-10-16T11:37:53;10.20;;;5.63;;
74510;SDS011;62991;50.040;18.400;2022-10-16T11:41:00;11.13;;;5.30;;
74510;SDS011;62991;50.040;18.400;2022-10-16T11:47:41;10.82;;;4.93;;
74510;SDS011;62991;50.040;18.400;2022-10-16T11:50:50;13.05;;;5.22;;
74510;SDS011;62991;50.040;18.400;2022-10-16T11:57:20;11.00;;;5.32;;
74510;SDS011;62991;50.040;18.400;2022-10-16T12:10:26;14.27;;;5.60;;
74510;SDS011;62991;50.040;18.400;2022-10-16T12:13:33;10.57;;;5.32;;
74510;SDS011;62991;50.040;18.400;2022-10-16T12:16:37;9.27;;;4.90;;
74510;SDS011;62991;50.040;18.400;2022-10-16T12:20:01;9.48;;;4.68;;
74510;SDS011;62991;50.040;18.400;2022-10-16T12:23:19;10.57;;;5.07;;
74510;SDS011;62991;50.040;18.400;2022-10-16T12:26:23;10.70;;;4.93;;
74510;SDS011;62991;50.040;18.400;2022-10-16T12:35:43;18.40;;;6.25;;
74510;SDS011;62991;50.040;18.400;2022-10-16T12:42:00;14.43;;;6.60;;
74510;SDS011;62991;50.040;18.400;2022-10-16T12:48:29;18.38;;;7.32;;
74510;SDS011;62991;50.040;18.400;2022-10-16T12:54:35;18.38;;;8.18;;
74510;SDS011;62991;50.040;18.400;2022-10-16T13:05:17;20.17;;;7.88;;
74510;SDS011;62991;50.040;18.400;2022-10-16T13:21:37;14.30;;;7.15;;
74510;SDS011;62991;50.040;18.400;2022-10-16T13:27:56;12.38;;;6.32;;
74510;SDS011;62991;50.040;18.400;2022-10-16T13:31:01;10.20;;;5.47;;
74510;SDS011;62991;50.040;18.400;2022-10-16T13:34:03;11.18;;;5.57;;
74510;SDS011;62991;50.040;18.400;2022-10-16T13:37:16;8.95;;;4.57;;
74510;SDS011;62991;50.040;18.400;2022-10-16T13:40:21;7.95;;;4.50;;
74510;SDS011;62991;50.040;18.400;2022-10-16T13:43:34;9.02;;;4.35;;
74510;SDS011;62991;50.040;18.400;2022-10-16T13:46:37;7.88;;;4.47;;
74510;SDS011;62991;50.040;18.400;2022-10-16T13:49:38;13.13;;;5.90;;
74510;SDS011;62991;50.040;18.400;2022-10-16T13:52:39;11.90;;;5.07;;
74510;SDS011;62991;50.040;18.400;2022-10-16T13:55:41;14.63;;;7.20;;
74510;SDS011;62991;50.040;18.400;2022-10-16T13:58:42;14.15;;;7.57;;
74510;SDS011;62991;50.040;18.400;2022-10-16T14:01:43;10.27;;;5.72;;
74510;SDS011;62991;50.040;18.400;2022-10-16T14:04:44;10.63;;;5.40;;
74510;SDS011;62991;50.040;18.400;2022-10-16T14:07:48;12.68;;;6.60;;
74510;SDS011;62991;50.040;18.400;2022-10-16T14:10:52;11.05;;;5.78;;
74510;SDS011;62991;50.040;18.400;2022-10-16T14:13:55;10.00;;;5.43;;
74510;SDS011;62991;50.040;18.400;2022-10-16T14:16:56;11.55;;;6.47;;
74510;SDS011;62991;50.040;18.400;2022-10-16T14:19:58;12.88;;;5.75;;
74510;SDS011;62991;50.040;18.400;2022-10-16T14:23:04;15.27;;;6.75;;
74510;SDS011;62991;50.040;18.400;2022-10-16T14:26:26;9.10;;;4.78;;
74510;SDS011;62991;50.040;18.400;2022-10-16T14:29:29;9.90;;;5.75;;
74510;SDS011;62991;50.040;18.400;2022-10-16T14:32:32;13.45;;;7.32;;
74510;SDS011;62991;50.040;18.400;2022-10-16T14:35:36;14.73;;;6.57;;
74510;SDS011;62991;50.040;18.400;2022-10-16T14:38:40;11.30;;;6.55;;
74510;SDS011;62991;50.040;18.400;2022-10-16T14:41:47;13.07;;;6.20;;
74510;SDS011;62991;50.040;18.400;2022-10-16T14:44:53;13.95;;;5.78;;
74510;SDS011;62991;50.040;18.400;2022-10-16T14:47:59;11.40;;;5.53;;
74510;SDS011;62991;50.040;18.400;2022-10-16T14:51:02;11.55;;;5.72;;
74510;SDS011;62991;50.040;18.400;2022-10-16T14:54:05;13.25;;;5.95;;
74510;SDS011;62991;50.040;18.400;2022-10-16T14:57:27;14.77;;;7.18;;
74510;SDS011;62991;50.040;18.400;2022-10-16T15:03:30;22.48;;;10.02;;
74510;SDS011;62991;50.040;18.400;2022-10-16T15:06:31;16.95;;;8.55;;
74510;SDS011;62991;50.040;18.400;2022-10-16T15:09:32;23.40;;;9.98;;
74510;SDS011;62991;50.040;18.400;2022-10-16T15:12:33;20.38;;;10.02;;
74510;SDS011;62991;50.040;18.400;2022-10-16T15:18:40;24.55;;;10.90;;
74510;SDS011;62991;50.040;18.400;2022-10-16T15:21:40;22.98;;;11.45;;
74510;SDS011;62991;50.040;18.400;2022-10-16T15:24:42;20.63;;;8.30;;
74510;SDS011;62991;50.040;18.400;2022-10-16T15:27:43;25.15;;;10.07;;
74510;SDS011;62991;50.040;18.400;2022-10-16T15:30:45;31.33;;;14.90;;
74510;SDS011;62991;50.040;18.400;2022-10-16T15:33:49;30.73;;;13.30;;
74510;SDS011;62991;50.040;18.400;2022-10-16T15:36:54;38.40;;;14.18;;
74510;SDS011;62991;50.040;18.400;2022-10-16T15:39:56;45.47;;;15.50;;
74510;SDS011;62991;50.040;18.400;2022-10-16T15:42:57;42.83;;;16.33;;
74510;SDS011;62991;50.040;18.400;2022-10-16T15:45:59;51.47;;;18.67;;
74510;SDS011;62991;50.040;18.400;2022-10-16T15:49:01;58.85;;;21.25;;
74510;SDS011;62991;50.040;18.400;2022-10-16T15:52:03;47.88;;;18.55;;
74510;SDS011;62991;50.040;18.400;2022-10-16T15:55:03;46.00;;;19.52;;
74510;SDS011;62991;50.040;18.400;2022-10-16T15:58:06;34.38;;;14.15;;
74510;SDS011;62991;50.040;18.400;2022-10-16T16:01:06;36.58;;;13.02;;
74510;SDS011;62991;50.040;18.400;2022-10-16T16:04:09;37.47;;;14.35;;
74510;SDS011;62991;50.040;18.400;2022-10-16T16:07:11;46.08;;;17.10;;
74510;SDS011;62991;50.040;18.400;2022-10-16T16:10:12;49.33;;;18.15;;
74510;SDS011;62991;50.040;18.400;2022-10-16T16:13:13;44.88;;;17.35;;
74510;SDS011;62991;50.040;18.400;2022-10-16T16:16:14;59.28;;;20.77;;
74510;SDS011;62991;50.040;18.400;2022-10-16T16:19:16;54.13;;;18.15;;
74510;SDS011;62991;50.040;18.400;2022-10-16T16:22:20;56.30;;;19.30;;
74510;SDS011;62991;50.040;18.400;2022-10-16T16:25:21;37.15;;;15.57;;
74510;SDS011;62991;50.040;18.400;2022-10-16T16:28:22;41.28;;;16.48;;
74510;SDS011;62991;50.040;18.400;2022-10-16T16:31:26;34.97;;;15.48;;
74510;SDS011;62991;50.040;18.400;2022-10-16T16:34:28;60.65;;;21.95;;
74510;SDS011;62991;50.040;18.400;2022-10-16T16:37:29;62.63;;;23.23;;
74510;SDS011;62991;50.040;18.400;2022-10-16T16:40:30;46.58;;;19.13;;
74510;SDS011;62991;50.040;18.400;2022-10-16T16:43:30;39.67;;;16.25;;
74510;SDS011;62991;50.040;18.400;2022-10-16T16:46:32;42.40;;;16.80;;
74510;SDS011;62991;50.040;18.400;2022-10-16T16:49:34;40.25;;;16.45;;
74510;SDS011;62991;50.040;18.400;2022-10-16T16:52:34;39.00;;;15.80;;
74510;SDS011;62991;50.040;18.400;2022-10-16T16:55:35;51.03;;;19.60;;
74510;SDS011;62991;50.040;18.400;2022-10-16T16:58:36;44.38;;;18.27;;
74510;SDS011;62991;50.040;18.400;2022-10-16T17:01:37;41.10;;;16.85;;
74510;SDS011;62991;50.040;18.400;2022-10-16T17:04:38;27.67;;;13.70;;
74510;SDS011;62991;50.040;18.400;2022-10-16T17:07:39;24.48;;;11.68;;
74510;SDS011;62991;50.040;18.400;2022-10-16T17:10:43;27.65;;;12.00;;
74510;SDS011;62991;50.040;18.400;2022-10-16T17:13:44;26.92;;;12.48;;
74510;SDS011;62991;50.040;18.400;2022-10-16T17:16:45;28.83;;;12.43;;
74510;SDS011;62991;50.040;18.400;2022-10-16T17:19:50;30.27;;;10.95;;
74510;SDS011;62991;50.040;18.400;2022-10-16T17:22:51;28.38;;;10.93;;
74510;SDS011;62991;50.040;18.400;2022-10-16T17:25:52;28.00;;;12.38;;
74510;SDS011;62991;50.040;18.400;2022-10-16T17:28:54;31.20;;;12.43;;
74510;SDS011;62991;50.040;18.400;2022-10-16T17:31:56;26.17;;;12.98;;
74510;SDS011;62991;50.040;18.400;2022-10-16T17:34:58;29.75;;;13.00;;
74510;SDS011;62991;50.040;18.400;2022-10-16T17:37:59;28.05;;;11.15;;
74510;SDS011;62991;50.040;18.400;2022-10-16T17:41:10;25.98;;;12.00;;
74510;SDS011;62991;50.040;18.400;2022-10-16T17:44:22;26.23;;;9.95;;
74510;SDS011;62991;50.040;18.400;2022-10-16T17:47:22;26.52;;;12.30;;
74510;SDS011;62991;50.040;18.400;2022-10-16T17:50:23;25.15;;;11.00;;
74510;SDS011;62991;50.040;18.400;2022-10-16T17:53:24;29.83;;;11.85;;
74510;SDS011;62991;50.040;18.400;2022-10-16T17:56:25;23.90;;;11.40;;
74510;SDS011;62991;50.040;18.400;2022-10-16T17:59:26;24.70;;;12.23;;
74510;SDS011;62991;50.040;18.400;2022-10-16T18:02:28;27.20;;;11.23;;
74510;SDS011;62991;50.040;18.400;2022-10-16T18:05:29;29.08;;;12.07;;
74510;SDS011;62991;50.040;18.400;2022-10-16T18:08:29;23.27;;;10.23;;
74510;SDS011;62991;50.040;18.400;2022-10-16T18:11:30;22.80;;;9.90;;
74510;SDS011;62991;50.040;18.400;2022-10-16T18:14:31;23.48;;;11.38;;
74510;SDS011;62991;50.040;18.400;2022-10-16T18:17:33;26.25;;;11.25;;
74510;SDS011;62991;50.040;18.400;2022-10-16T18:20:37;25.40;;;11.20;;
74510;SDS011;62991;50.040;18.400;2022-10-16T18:23:38;24.42;;;10.95;;
74510;SDS011;62991;50.040;18.400;2022-10-16T18:26:39;27.98;;;12.02;;
74510;SDS011;62991;50.040;18.400;2022-10-16T18:29:40;51.92;;;19.48;;
74510;SDS011;62991;50.040;18.400;2022-10-16T18:32:40;50.65;;;19.30;;
74510;SDS011;62991;50.040;18.400;2022-10-16T18:35:41;46.65;;;17.02;;
74510;SDS011;62991;50.040;18.400;2022-10-16T18:38:42;44.17;;;17.67;;
74510;SDS011;62991;50.040;18.400;2022-10-16T18:41:43;27.00;;;11.63;;
74510;SDS011;62991;50.040;18.400;2022-10-16T18:44:43;27.85;;;11.65;;
74510;SDS011;62991;50.040;18.400;2022-10-16T18:47:44;36.42;;;13.65;;
74510;SDS011;62991;50.040;18.400;2022-10-16T18:50:45;53.95;;;19.42;;
74510;SDS011;62991;50.040;18.400;2022-10-16T18:53:48;52.90;;;18.30;;
74510;SDS011;62991;50.040;18.400;2022-10-16T18:59:52;23.35;;;10.65;;
74510;SDS011;62991;50.040;18.400;2022-10-16T19:02:52;29.15;;;12.75;;
74510;SDS011;62991;50.040;18.400;2022-10-16T19:05:53;30.05;;;12.40;;
74510;SDS011;62991;50.040;18.400;2022-10-16T19:08:54;24.90;;;11.27;;
74510;SDS011;62991;50.040;18.400;2022-10-16T19:11:56;37.40;;;13.23;;
74510;SDS011;62991;50.040;18.400;2022-10-16T19:14:58;31.65;;;12.70;;
74510;SDS011;62991;50.040;18.400;2022-10-16T19:17:59;37.55;;;13.50;;
74510;SDS011;62991;50.040;18.400;2022-10-16T19:21:00;34.33;;;14.05;;
74510;SDS011;62991;50.040;18.400;2022-10-16T19:24:02;32.75;;;13.65;;
74510;SDS011;62991;50.040;18.400;2022-10-16T19:27:03;38.25;;;13.93;;
74510;SDS011;62991;50.040;18.400;2022-10-16T19:30:04;30.05;;;12.55;;
74510;SDS011;62991;50.040;18.400;2022-10-16T19:33:06;23.95;;;11.30;;
74510;SDS011;62991;50.040;18.400;2022-10-16T19:36:08;26.40;;;10.73;;
74510;SDS011;62991;50.040;18.400;2022-10-16T19:39:13;22.10;;;9.85;;
74510;SDS011;62991;50.040;18.400;2022-10-16T19:42:16;24.15;;;10.18;;
74510;SDS011;62991;50.040;18.400;2022-10-16T19:45:16;24.45;;;9.88;;
74510;SDS011;62991;50.040;18.400;2022-10-16T19:48:17;22.77;;;8.98;;
74510;SDS011;62991;50.040;18.400;2022-10-16T19:51:18;17.92;;;9.25;;
74510;SDS011;62991;50.040;18.400;2022-10-16T19:54:19;22.65;;;8.85;;
74510;SDS011;62991;50.040;18.400;2022-10-16T19:57:19;25.63;;;9.13;;
74510;SDS011;62991;50.040;18.400;2022-10-16T20:00:22;28.60;;;10.80;;
74510;SDS011;62991;50.040;18.400;2022-10-16T20:03:23;26.65;;;10.05;;
74510;SDS011;62991;50.040;18.400;2022-10-16T20:06:24;16.80;;;7.82;;